Time;durP1;ratioP1;P1;durP2;ratioP2;P2;SDS_P1;SDS_P2;PMS_P1;PMS_P2;Temp;Humidity;BMP_temperature;BMP_pressure;BME280_temperature;BME280_humidity;BME280_pressure;Samples;Min_cycle;Max_cycle;Signal;HPM_P1;HPM_P2
2022/07/30 00:01:35;;;;;;;11.82;5.88;;;;;;;17.44;68.62;101647.78;5074336;28;20091;-71
2022/07/30 00:04:02;;;;;;;8.75;5.30;;;;;;;17.42;68.69;101646.13;5071928;28;20044;-72
2022/07/30 00:06:31;;;;;;;7.72;5.85;;;;;;;17.36;68.89;101640.13;5069221;28;20076;-71
2022/07/30 00:08:58;;;;;;;11.75;6.00;;;;;;;17.33;69.02;101644.75;5070976;28;20053;-71
2022/07/30 00:11:26;;;;;;;10.65;5.93;;;;;;;17.29;69.48;101641.34;5069314;28;20044;-71
2022/07/30 00:13:54;;;;;;;14.63;6.43;;;;;;;17.23;69.78;101641.66;5070573;28;20049;-71
2022/07/30 00:16:22;;;;;;;14.32;6.10;;;;;;;17.14;70.10;101637.59;5069891;28;20045;-71
2022/07/30 00:18:49;;;;;;;9.02;5.80;;;;;;;17.10;70.54;101640.47;5060948;28;20037;-71
2022/07/30 00:21:17;;;;;;;10.73;6.20;;;;;;;17.01;70.90;101645.28;5069187;28;20053;-71
2022/07/30 00:24:03;;;;;;;10.07;6.45;;;;;;;16.94;71.28;101646.47;5070228;28;20075;-71
2022/07/30 00:26:30;;;;;;;12.88;7.32;;;;;;;16.88;71.59;101646.72;5070089;28;20531;-71
2022/07/30 00:28:58;;;;;;;11.30;7.13;;;;;;;16.84;72.11;101643.31;5070044;28;20595;-71
2022/07/30 00:31:25;;;;;;;14.27;7.53;;;;;;;16.79;72.36;101647.13;5069168;28;20091;-71
2022/07/30 00:33:53;;;;;;;11.00;7.30;;;;;;;16.75;72.82;101655.22;5054782;28;20052;-71
2022/07/30 00:36:22;;;;;;;13.57;7.60;;;;;;;16.74;73.56;101648.16;5062800;28;20041;-71
2022/07/30 00:38:50;;;;;;;13.75;8.27;;;;;;;16.69;74.10;101658.16;5069852;28;20049;-71
2022/07/30 00:41:19;;;;;;;11.90;8.20;;;;;;;16.64;74.37;101646.00;5068494;28;20986;-74
2022/07/30 00:43:46;;;;;;;13.48;8.38;;;;;;;16.58;74.35;101647.13;5069913;28;20132;-74
2022/07/30 00:46:14;;;;;;;11.50;8.18;;;;;;;16.55;74.37;101648.13;5069383;28;20590;-74
2022/07/30 00:48:42;;;;;;;17.58;8.35;;;;;;;16.56;75.11;101648.97;5059565;28;20570;-74
2022/07/30 00:51:09;;;;;;;14.27;8.63;;;;;;;16.54;75.26;101654.38;5056632;28;20555;-72
2022/07/30 00:53:37;;;;;;;19.45;8.57;;;;;;;16.53;75.61;101652.63;5068196;28;20099;-74
2022/07/30 00:56:05;;;;;;;19.95;9.07;;;;;;;16.52;75.71;101652.72;5064885;28;20037;-74
2022/07/30 00:58:32;;;;;;;12.65;8.73;;;;;;;16.52;75.71;101650.91;5064085;28;20037;-74
2022/07/30 01:01:00;;;;;;;13.85;9.43;;;;;;;16.53;75.98;101654.44;5072660;28;20139;-74
2022/07/30 01:03:27;;;;;;;20.13;9.15;;;;;;;16.53;76.17;101649.13;5069666;28;20124;-73
2022/07/30 01:05:55;;;;;;;18.67;10.55;;;;;;;16.51;76.47;101648.31;5067285;28;20084;-73
2022/07/30 01:08:22;;;;;;;14.18;10.10;;;;;;;16.52;76.70;101652.72;5060274;28;21978;-73
2022/07/30 01:10:51;;;;;;;15.48;9.68;;;;;;;16.52;76.77;101650.91;5082312;28;20519;-72
2022/07/30 01:13:18;;;;;;;16.00;10.20;;;;;;;16.51;76.67;101649.16;5072073;28;20065;-73
2022/07/30 01:15:46;;;;;;;14.55;10.27;;;;;;;16.50;76.56;101650.09;5074129;28;20045;-71
2022/07/30 01:18:16;;;;;;;17.25;9.77;;;;;;;16.53;78.75;101641.13;5069311;28;20049;-71
2022/07/30 01:21:03;;;;;;;18.60;10.13;;;;;;;16.57;79.85;101645.38;5070185;28;20053;-71
2022/07/30 01:23:40;;;;;;;20.05;10.40;;;;;;;16.57;80.18;101648.03;5070600;28;20049;-71
2022/07/30 01:26:18;;;;;;;18.67;10.18;;;;;;;16.57;80.83;101646.25;5071363;28;20490;-71
2022/07/30 01:28:50;;;;;;;23.85;10.52;;;;;;;16.60;81.89;101642.59;5063806;28;20049;-71
2022/07/30 01:31:20;;;;;;;18.73;9.90;;;;;;;16.57;81.82;101640.06;5071874;28;20508;-71
2022/07/30 01:33:50;;;;;;;18.73;11.02;;;;;;;16.58;82.00;101641.78;5070037;28;20052;-71
2022/07/30 01:36:21;;;;;;;22.67;10.57;;;;;;;16.55;81.64;101633.94;5068174;28;20111;-71
2022/07/30 01:38:51;;;;;;;16.92;10.15;;;;;;;16.56;82.24;101639.22;5071896;28;20043;-72
2022/07/30 01:41:19;;;;;;;23.55;9.95;;;;;;;16.55;82.12;101648.13;5069670;28;20065;-72
2022/07/30 01:43:46;;;;;;;21.65;10.88;;;;;;;16.56;82.58;101641.00;5071963;28;20064;-72
2022/07/30 01:46:17;;;;;;;25.85;13.00;;;;;;;16.54;82.44;101643.72;5072981;28;20040;-72
2022/07/30 01:48:48;;;;;;;19.23;12.85;;;;;;;16.53;82.11;101639.34;5085947;28;20112;-71
2022/07/30 01:51:18;;;;;;;18.88;11.38;;;;;;;16.51;81.81;101635.88;5080243;28;20041;-72
2022/07/30 01:53:52;;;;;;;15.37;11.43;;;;;;;16.48;81.83;101633.34;5072249;28;20045;-72
2022/07/30 01:56:24;;;;;;;20.05;11.52;;;;;;;16.44;81.80;101637.91;5073429;28;20053;-72
2022/07/30 01:58:57;;;;;;;20.50;12.18;;;;;;;16.42;82.49;101634.47;5068402;28;20057;-71
2022/07/30 02:01:29;;;;;;;18.33;12.07;;;;;;;16.42;83.14;101646.91;5091740;28;20537;-71
2022/07/30 02:04:01;;;;;;;19.10;12.93;;;;;;;16.38;83.17;101647.97;5104822;28;20120;-72
2022/07/30 02:06:45;;;;;;;20.63;11.80;;;;;;;16.33;82.89;101649.94;5107378;28;20049;-72
2022/07/30 02:09:26;;;;;;;18.95;12.57;;;;;;;16.25;82.84;101656.47;5068599;28;20080;-72
2022/07/30 02:14:52;;;;;;;22.38;13.98;;;;;;;16.06;82.73;101653.69;5073757;28;20068;-71
2022/07/30 02:17:30;;;;;;;21.15;14.20;;;;;;;15.97;82.76;101652.25;5071891;28;20045;-72
2022/07/30 02:20:11;;;;;;;20.52;13.57;;;;;;;15.94;82.73;101654.16;5069513;28;20041;-72
2022/07/30 02:22:45;;;;;;;20.73;14.10;;;;;;;15.90;83.36;101648.09;5077670;28;20045;-72
2022/07/30 02:25:19;;;;;;;23.55;13.60;;;;;;;15.86;84.01;101653.59;5070122;28;20045;-72
2022/07/30 02:27:54;;;;;;;22.80;13.85;;;;;;;15.83;84.36;101651.91;5071396;28;20048;-72
2022/07/30 02:30:29;;;;;;;20.23;13.88;;;;;;;15.85;84.79;101655.41;5088199;28;20051;-72
2022/07/30 02:33:07;;;;;;;20.33;13.57;;;;;;;15.84;84.95;101646.56;5065049;28;20037;-72
2022/07/30 02:35:36;;;;;;;23.45;13.73;;;;;;;15.88;84.95;101652.63;5073760;28;20041;-71
2022/07/30 02:38:07;;;;;;;17.33;12.10;;;;;;;15.93;85.23;101647.13;5069443;28;20041;-72
2022/07/30 02:40:40;;;;;;;19.25;13.68;;;;;;;15.91;85.45;101646.34;5072029;28;20088;-71
2022/07/30 02:43:09;;;;;;;25.40;13.98;;;;;;;15.93;85.51;101649.78;5071469;28;20045;-71
2022/07/30 02:45:37;;;;;;;25.42;14.00;;;;;;;15.97;85.91;101656.72;5070619;28;20041;-71
2022/07/30 02:48:09;;;;;;;22.42;13.18;;;;;;;16.02;85.95;101648.53;5069336;28;20067;-71
2022/07/30 02:50:38;;;;;;;25.67;13.85;;;;;;;16.05;86.05;101649.28;5072317;28;20041;-71
2022/07/30 02:53:11;;;;;;;21.73;13.07;;;;;;;16.11;85.97;101650.84;5083990;28;20052;-72
2022/07/30 02:55:42;;;;;;;24.60;14.10;;;;;;;16.17;86.06;101655.03;5070197;28;20515;-73
2022/07/30 02:58:18;;;;;;;22.73;13.70;;;;;;;16.27;86.37;101651.06;5063836;28;20041;-73
2022/07/30 03:00:48;;;;;;;23.67;14.88;;;;;;;16.29;86.37;101650.06;5077599;28;20060;-73
2022/07/30 03:03:16;;;;;;;23.70;14.68;;;;;;;16.36;86.59;101648.03;5069972;28;20044;-73
2022/07/30 03:05:49;;;;;;;27.58;15.00;;;;;;;16.40;86.54;101652.28;5068191;28;20045;-73
2022/07/30 03:08:16;;;;;;;27.45;14.82;;;;;;;16.46;87.14;101654.69;5079054;28;20052;-71
2022/07/30 03:10:49;;;;;;;25.38;15.75;;;;;;;16.51;87.51;101658.97;5068065;28;20048;-71
2022/07/30 03:13:18;;;;;;;25.38;15.15;;;;;;;16.56;87.63;101665.81;5060836;28;20045;-71
2022/07/30 03:15:49;;;;;;;25.48;15.48;;;;;;;16.60;87.63;101659.41;5070418;28;20041;-71
2022/07/30 03:18:22;;;;;;;26.20;15.38;;;;;;;16.55;87.47;101663.22;5061636;28;20076;-71
2022/07/30 03:20:53;;;;;;;25.77;13.95;;;;;;;16.55;87.66;101673.84;5088052;28;20053;-71
2022/07/30 03:23:22;;;;;;;29.42;15.18;;;;;;;16.46;87.61;101660.00;5070506;28;20049;-70
2022/07/30 03:26:00;;;;;;;27.35;13.85;;;;;;;16.46;87.98;101656.50;5088128;28;20049;-72
2022/07/30 03:28:36;;;;;;;27.35;15.07;;;;;;;16.42;88.33;101666.41;5069590;28;20053;-71
2022/07/30 03:31:05;;;;;;;23.30;16.02;;;;;;;16.45;88.41;101663.59;5084692;28;20052;-71
2022/07/30 03:33:35;;;;;;;26.85;15.98;;;;;;;16.45;88.58;101663.59;5081484;28;20139;-71
2022/07/30 03:36:07;;;;;;;21.33;12.15;;;;;;;16.50;88.77;101674.06;5067671;28;20033;-73
2022/07/30 03:38:37;;;;;;;23.70;14.70;;;;;;;16.52;88.40;101668.69;5067594;28;20120;-73
2022/07/30 03:41:06;;;;;;;35.92;15.77;;;;;;;16.50;88.40;101666.06;5091157;28;20044;-73
2022/07/30 03:43:34;;;;;;;28.95;15.70;;;;;;;16.46;88.32;101668.00;5076014;28;20041;-72
2022/07/30 03:46:08;;;;;;;25.00;14.82;;;;;;;16.44;88.53;101666.34;5071186;28;20051;-72
2022/07/30 03:48:41;;;;;;;27.88;16.08;;;;;;;16.41;88.41;101669.13;5065222;28;20041;-72
2022/07/30 03:51:09;;;;;;;27.23;14.40;;;;;;;16.43;88.48;101667.25;5101437;28;20048;-72
2022/07/30 03:53:40;;;;;;;26.80;14.80;;;;;;;16.44;88.60;101666.34;5069897;28;20037;-72
2022/07/30 03:56:26;;;;;;;32.53;14.50;;;;;;;16.44;88.70;101672.50;5057809;28;20733;-72
2022/07/30 03:59:05;;;;;;;28.08;13.75;;;;;;;16.44;88.28;101672.50;5068845;28;20041;-72
2022/07/30 04:01:36;;;;;;;25.88;13.70;;;;;;;16.45;88.02;101673.41;5083291;28;20631;-72
2022/07/30 04:04:24;;;;;;;28.27;13.65;;;;;;;16.47;87.70;101676.84;5069889;28;20211;-71
2022/07/30 04:06:51;;;;;;;25.20;13.30;;;;;;;16.46;87.88;101668.00;5067466;28;20049;-73
2022/07/30 04:09:19;;;;;;;27.23;14.10;;;;;;;16.51;87.97;101673.13;5082923;28;20531;-73
2022/07/30 04:11:47;;;;;;;25.85;13.93;;;;;;;16.53;87.44;101675.75;5087703;28;20061;-72
2022/07/30 04:14:16;;;;;;;19.17;12.65;;;;;;;16.49;87.24;101674.13;5084958;28;20528;-72
2022/07/30 04:16:56;;;;;;;22.27;11.65;;;;;;;16.49;86.85;101682.09;5087586;28;20072;-72
2022/07/30 04:19:42;;;;;;;20.50;12.07;;;;;;;16.43;86.84;101684.09;5085425;28;20127;-72
2022/07/30 04:22:15;;;;;;;;;;;;;;;16.43;86.53;101675.25;5087398;28;20056;-72
2022/07/30 04:24:44;;;;;;;16.35;10.30;;;;;;;16.42;86.59;101692.13;5085639;28;20435;-73
2022/07/30 04:27:11;;;;;;;19.95;11.05;;;;;;;16.39;86.54;101687.81;5086884;28;20037;-72
2022/07/30 04:29:39;;;;;;;17.60;10.38;;;;;;;16.38;86.84;101691.41;5068635;28;20562;-71
2022/07/30 04:32:10;;;;;;;16.88;10.20;;;;;;;16.36;86.64;101689.75;5080825;28;20076;-72
2022/07/30 04:34:57;;;;;;;19.80;10.68;;;;;;;16.37;87.10;101697.66;5066169;28;20448;-74
2022/07/30 04:37:42;;;;;;;18.02;10.68;;;;;;;16.36;86.87;101705.72;5067345;28;20047;-73
2022/07/30 04:40:09;;;;;;;17.40;10.13;;;;;;;16.39;86.79;101713.53;5085036;28;20044;-73
2022/07/30 04:42:36;;;;;;;21.35;9.82;;;;;;;16.40;86.81;101712.63;5070434;28;20106;-73
2022/07/30 04:45:08;;;;;;;22.80;10.82;;;;;;;16.40;86.32;101713.50;5069613;28;20048;-74
2022/07/30 04:47:48;;;;;;;14.85;9.88;;;;;;;16.42;86.20;101718.75;5077189;28;20124;-72
2022/07/30 04:50:38;;;;;;;20.48;9.40;;;;;;;16.44;86.12;101722.22;5088913;28;20452;-73
2022/07/30 04:53:09;;;;;;;18.45;10.40;;;;;;;16.44;86.12;101727.53;5088007;28;20041;-72
2022/07/30 04:55:45;;;;;;;24.27;10.55;;;;;;;16.38;86.31;101725.16;5087356;28;20504;-72
2022/07/30 04:58:17;;;;;;;20.75;10.82;;;;;;;16.40;86.33;101737.44;5088595;28;20049;-72
2022/07/30 05:00:47;;;;;;;20.17;10.48;;;;;;;16.42;86.11;101732.06;5071685;28;20052;-73
2022/07/30 05:03:20;;;;;;;15.15;9.65;;;;;;;16.42;85.75;101737.38;5087246;28;20116;-71
2022/07/30 05:05:51;;;;;;;23.20;10.50;;;;;;;16.42;85.78;101732.06;5087468;28;20179;-70
2022/07/30 05:08:25;;;;;;;18.20;10.52;;;;;;;16.43;85.63;101739.09;5082964;28;20462;-70
2022/07/30 05:10:54;;;;;;;17.92;10.63;;;;;;;16.44;85.85;101747.03;5087977;28;20112;-70
2022/07/30 05:13:23;;;;;;;21.00;11.13;;;;;;;16.45;86.00;101748.75;5088524;28;20059;-71
2022/07/30 05:16:01;;;;;;;26.65;10.68;;;;;;;16.51;85.75;101749.44;5070379;28;20056;-70
2022/07/30 05:18:28;;;;;;;18.23;9.73;;;;;;;16.59;85.75;101753.50;5072344;28;20076;-70
2022/07/30 05:20:56;;;;;;;21.33;10.10;;;;;;;16.65;85.24;101755.06;5088890;28;20067;-70
2022/07/30 05:23:50;;;;;;;17.25;10.23;;;;;;;16.69;84.56;101751.34;5072690;28;20061;-70
2022/07/30 05:26:30;;;;;;;20.27;10.65;;;;;;;16.69;84.29;101748.69;5089601;28;20044;-70
2022/07/30 05:29:00;;;;;;;22.00;11.13;;;;;;;16.70;84.21;101750.41;5069412;28;20045;-73
2022/07/30 05:31:42;;;;;;;20.67;11.38;;;;;;;16.75;84.19;101751.09;5097149;28;20817;-72
2022/07/30 05:34:11;;;;;;;20.02;12.07;;;;;;;16.80;83.87;101755.34;5087256;28;20045;-72
2022/07/30 05:36:43;;;;;;;22.63;10.25;;;;;;;16.84;83.66;101752.50;5070560;28;20041;-73
2022/07/30 05:39:15;;;;;;;17.17;11.68;;;;;;;16.89;83.45;101752.31;5089702;28;20049;-73
2022/07/30 05:42:03;;;;;;;21.33;11.23;;;;;;;16.92;83.47;101749.53;5053837;28;20885;-72
2022/07/30 05:44:35;;;;;;;16.52;10.57;;;;;;;17.00;82.75;101752.75;5088991;28;20041;-72
2022/07/30 05:47:02;;;;;;;15.55;9.35;;;;;;;17.04;82.38;101745.47;5089992;28;20041;-73
2022/07/30 05:49:30;;;;;;;17.33;9.85;;;;;;;17.10;81.91;101753.19;5087501;28;20041;-71
2022/07/30 05:52:07;;;;;;;12.15;8.93;;;;;;;17.28;81.25;101756.00;5075177;28;20514;-72
2022/07/30 05:54:36;;;;;;;16.40;8.45;;;;;;;18.35;77.73;101751.13;5080901;28;20069;-70
2022/07/30 05:57:18;;;;;;;13.05;8.35;;;;;;;18.71;75.93;101751.13;5069156;28;20040;-71
2022/07/30 05:59:46;;;;;;;15.25;7.88;;;;;;;19.44;73.79;101754.53;5070210;28;20037;-70
2022/07/30 06:02:23;;;;;;;15.25;7.85;;;;;;;20.04;70.91;101755.81;5069924;28;20110;-70
2022/07/30 06:05:14;;;;;;;14.75;7.65;;;;;;;19.43;71.82;101764.38;5033055;28;20059;-71
2022/07/30 06:07:42;;;;;;;14.68;8.93;;;;;;;19.06;72.98;101763.66;5085621;28;20784;-70
2022/07/30 06:10:10;;;;;;;21.60;10.45;;;;;;;18.72;74.13;101760.84;5069553;28;20045;-70
2022/07/30 06:12:37;;;;;;;15.52;9.57;;;;;;;18.45;75.09;101766.63;5085450;28;20095;-70
2022/07/30 06:15:06;;;;;;;15.43;8.55;;;;;;;18.34;75.68;101771.59;5070912;28;20530;-70
2022/07/30 06:17:45;;;;;;;17.25;9.00;;;;;;;18.39;75.85;101766.94;5087787;28;20056;-70
2022/07/30 06:20:48;;;;;;;22.95;11.18;;;;;;;18.53;75.00;101768.03;5087226;28;20053;-70
2022/07/30 06:23:34;;;;;;;21.48;10.73;;;;;;;18.56;75.13;101765.22;5070560;28;20051;-70
2022/07/30 06:26:21;;;;;;;17.08;10.18;;;;;;;18.42;74.46;101763.22;5071405;28;20821;-70
2022/07/30 06:28:49;;;;;;;15.23;11.23;;;;;;;18.35;74.62;101770.66;5088136;28;20075;-70
2022/07/30 06:31:22;;;;;;;18.52;11.02;;;;;;;18.28;75.00;101769.25;5086742;28;20112;-71
2022/07/30 06:33:50;;;;;;;21.98;11.23;;;;;;;18.33;74.96;101780.56;5075586;28;20103;-70
2022/07/30 06:36:19;;;;;;;19.00;11.52;;;;;;;18.35;75.31;101783.16;5087343;28;20045;-71
2022/07/30 06:38:53;;;;;;;22.27;13.73;;;;;;;18.39;75.30;101790.94;5078575;28;20044;-70
2022/07/30 06:41:32;;;;;;;21.42;13.35;;;;;;;18.30;74.81;101786.06;5070527;28;20045;-70
2022/07/30 06:43:59;;;;;;;18.30;11.98;;;;;;;18.35;74.84;101789.34;5067934;28;20068;-70
2022/07/30 06:46:47;;;;;;;15.13;10.25;;;;;;;18.68;74.46;101791.31;5069852;28;20041;-71
2022/07/30 06:49:18;;;;;;;21.42;12.10;;;;;;;18.91;73.90;101792.84;5070706;28;20112;-71
2022/07/30 06:51:46;;;;;;;18.88;12.10;;;;;;;18.91;73.55;101789.31;5087178;28;20047;-71
2022/07/30 06:54:13;;;;;;;21.08;12.02;;;;;;;19.00;73.09;101788.00;5059573;28;20635;-71
2022/07/30 06:57:03;;;;;;;25.58;12.77;;;;;;;18.99;72.74;101789.81;5051393;28;20506;-71
2022/07/30 06:59:31;;;;;;;19.50;12.00;;;;;;;19.09;73.34;101792.88;5087750;28;20072;-71
2022/07/30 07:02:28;;;;;;;15.15;10.52;;;;;;;19.22;72.84;101793.97;5085177;28;20043;-71
2022/07/30 07:05:08;;;;;;;14.60;9.60;;;;;;;19.29;71.72;101788.28;5066111;28;20146;-70
2022/07/30 07:07:36;;;;;;;15.38;9.75;;;;;;;19.37;71.85;101792.31;5074559;28;20584;-71
2022/07/30 07:10:13;;;;;;;15.40;9.88;;;;;;;19.47;70.66;101790.03;5091974;28;20045;-71
2022/07/30 07:12:56;;;;;;;14.48;9.35;;;;;;;19.46;70.95;101787.41;5083879;28;20112;-72
2022/07/30 07:15:23;;;;;;;14.18;9.55;;;;;;;19.59;70.39;101792.97;5085683;28;21059;-71
2022/07/30 07:18:06;;;;;;;12.25;9.15;;;;;;;19.71;69.44;101793.19;5087202;28;20057;-71
2022/07/30 07:20:36;;;;;;;11.80;8.23;;;;;;;19.79;69.16;101792.75;5067867;28;20504;-71
2022/07/30 07:23:06;;;;;;;13.32;8.77;;;;;;;19.96;68.81;101797.22;5081733;28;20045;-71
2022/07/30 07:25:38;;;;;;;11.48;7.95;;;;;;;20.04;68.19;101790.59;5092031;28;20043;-71
2022/07/30 07:28:06;;;;;;;12.93;7.57;;;;;;;20.08;67.88;101790.34;5077112;28;20656;-71
2022/07/30 07:30:44;;;;;;;13.68;6.43;;;;;;;20.15;66.75;101797.09;5070021;28;20104;-71
2022/07/30 07:33:12;;;;;;;14.50;6.05;;;;;;;20.17;65.45;101794.31;5085464;28;20900;-72
2022/07/30 07:35:43;;;;;;;11.80;6.40;;;;;;;20.22;64.55;101794.94;5070084;28;20052;-71
2022/07/30 07:38:24;;;;;;;9.88;6.00;;;;;;;20.28;64.08;101793.72;5069118;28;20045;-71
2022/07/30 07:40:53;;;;;;;8.98;5.45;;;;;;;20.31;64.64;101791.72;5083513;28;20454;-72
2022/07/30 07:43:21;;;;;;;13.27;5.40;;;;;;;20.36;63.58;101799.50;5079471;28;20053;-71
2022/07/30 07:45:49;;;;;;;14.27;6.32;;;;;;;20.26;63.83;101795.63;5074207;28;20068;-71
2022/07/30 07:48:18;;;;;;;14.15;5.53;;;;;;;20.32;64.61;101797.94;5087128;28;20056;-71
2022/07/30 07:50:45;;;;;;;9.65;5.80;;;;;;;20.52;64.08;101794.13;5071680;28;20047;-71
2022/07/30 07:53:31;;;;;;;8.18;4.57;;;;;;;20.59;63.24;101798.19;5082289;28;20509;-70
2022/07/30 07:55:59;;;;;;;12.23;5.13;;;;;;;20.49;61.96;101799.66;5087720;28;20037;-71
2022/07/30 07:58:26;;;;;;;8.57;4.30;;;;;;;20.52;61.64;101804.84;5080222;28;20052;-70
2022/07/30 08:00:58;;;;;;;9.25;4.43;;;;;;;20.44;61.25;101812.47;5066280;28;20079;-70
2022/07/30 08:03:46;;;;;;;6.88;4.35;;;;;;;20.41;61.25;101807.28;5076874;28;20033;-71
2022/07/30 08:06:40;;;;;;;8.10;4.72;;;;;;;20.41;61.77;101801.91;5080012;28;20059;-71
2022/07/30 08:09:29;;;;;;;10.23;4.78;;;;;;;20.54;61.53;101792.25;5037307;28;20059;-70
2022/07/30 08:12:31;;;;;;;10.68;4.22;;;;;;;20.62;62.33;101794.44;5059586;28;20130;-71
2022/07/30 08:15:17;;;;;;;7.95;3.60;;;;;;;20.79;60.58;101801.53;5069012;28;20041;-71
2022/07/30 08:18:09;;;;;;;7.97;3.90;;;;;;;20.81;59.88;101798.81;5064710;28;20060;-71
2022/07/30 08:20:59;;;;;;;8.13;3.60;;;;;;;20.93;59.50;101804.28;5079954;28;20064;-71
2022/07/30 08:23:30;;;;;;;8.18;3.40;;;;;;;20.93;58.67;101801.59;5070328;28;20481;-70
2022/07/30 08:25:58;;;;;;;9.98;3.63;;;;;;;20.99;58.36;101804.88;5083810;28;20041;-70
2022/07/30 08:28:25;;;;;;;8.05;3.65;;;;;;;21.03;58.50;101801.91;5088809;28;20037;-72
2022/07/30 08:31:03;;;;;;;7.95;3.63;;;;;;;21.24;58.18;101805.16;5079838;28;20465;-69
2022/07/30 08:33:30;;;;;;;10.43;3.55;;;;;;;21.30;58.44;101797.66;5060543;28;20113;-72
2022/07/30 08:35:58;;;;;;;6.75;2.80;;;;;;;21.29;55.67;101801.31;5091327;28;20045;-71
2022/07/30 08:38:38;;;;;;;6.10;2.95;;;;;;;21.28;55.87;101796.88;5090847;28;20052;-72
2022/07/30 08:41:07;;;;;;;8.80;2.90;;;;;;;21.24;55.34;101794.41;5086931;28;20052;-71
2022/07/30 08:43:36;;;;;;;8.70;3.30;;;;;;;21.20;55.97;101790.19;5079486;28;20045;-69
2022/07/30 08:46:09;;;;;;;10.00;3.28;;;;;;;21.23;55.95;101791.81;5079901;28;20585;-71
2022/07/30 08:48:47;;;;;;;9.50;3.90;;;;;;;21.29;56.27;101787.88;5097964;28;20044;-72
2022/07/30 08:51:18;;;;;;;7.20;3.53;;;;;;;21.35;56.85;101795.59;5060411;28;20124;-72
2022/07/30 08:54:06;;;;;;;8.10;3.60;;;;;;;21.42;54.37;101792.41;5050788;28;20077;-71
2022/07/30 08:56:35;;;;;;;5.13;2.70;;;;;;;21.51;51.37;101795.50;5083254;28;20040;-70
2022/07/30 08:59:04;;;;;;;6.55;3.00;;;;;;;21.59;52.25;101800.41;5103951;28;20547;-69
2022/07/30 09:01:31;;;;;;;6.03;2.80;;;;;;;21.68;52.85;101811.44;5096478;28;20071;-70
2022/07/30 09:03:59;;;;;;;5.40;3.47;;;;;;;21.75;53.23;101803.00;5106643;27;20053;-71
2022/07/30 09:06:28;;;;;;;5.65;3.80;;;;;;;21.76;53.84;101802.94;5089726;28;20040;-71
2022/07/30 09:08:55;;;;;;;9.52;3.80;;;;;;;21.85;54.25;101802.34;5086748;28;20037;-70
2022/07/30 09:11:22;;;;;;;9.73;3.92;;;;;;;21.89;53.36;101794.97;5083354;28;20045;-70
2022/07/30 09:13:50;;;;;;;8.27;2.88;;;;;;;21.98;51.57;101799.75;5086711;28;20053;-73
2022/07/30 09:16:24;;;;;;;8.68;2.67;;;;;;;22.06;50.66;101807.31;5068465;28;20037;-71
2022/07/30 09:18:53;;;;;;;6.05;2.80;;;;;;;;;;5086776;28;20124;-74
2022/07/30 09:21:24;;;;;;;4.80;3.05;;;;;;;22.16;49.15;101802.19;5076026;28;20534;-71
2022/07/30 09:24:12;;;;;;;6.50;2.55;;;;;;;22.25;48.73;101808.81;5093167;28;20120;-71
2022/07/30 09:27:08;;;;;;;4.53;3.50;;;;;;;22.32;48.55;101808.31;5069399;28;20047;-73
2022/07/30 09:30:00;;;;;;;5.40;4.13;;;;;;;22.34;49.35;101808.22;5068228;28;20073;-71
2022/07/30 09:32:55;;;;;;;7.05;4.53;;;;;;;22.29;49.66;101802.25;5073021;28;20041;-70
2022/07/30 09:35:42;;;;;;;7.00;3.90;;;;;;;22.29;49.00;101796.88;5059996;28;20049;-71
2022/07/30 09:38:11;;;;;;;7.20;3.50;;;;;;;22.38;47.80;101803.50;5074146;28;20033;-74
2022/07/30 09:41:08;;;;;;;7.22;3.88;;;;;;;22.48;48.34;101800.16;5072080;28;20041;-71
2022/07/30 09:44:07;;;;;;;7.65;4.28;;;;;;;22.61;48.57;101810.06;5088808;28;20041;-72
2022/07/30 09:46:46;;;;;;;5.50;4.18;;;;;;;22.69;48.55;101809.56;5089421;28;20047;-71
2022/07/30 09:49:29;;;;;;;5.97;4.25;;;;;;;22.74;48.65;101796.69;5109085;28;20064;-71
2022/07/30 09:51:57;;;;;;;7.43;3.80;;;;;;;22.82;48.32;101802.41;5076156;28;20944;-70
2022/07/30 09:54:49;;;;;;;7.45;4.38;;;;;;;22.99;47.58;101803.09;5110244;28;20075;-72
2022/07/30 09:57:22;;;;;;;8.48;4.55;;;;;;;23.07;47.88;101798.91;5089763;28;20040;-73
2022/07/30 10:00:23;;;;;;;10.07;4.25;;;;;;;23.21;47.47;101807.88;5094634;28;20041;-72
2022/07/30 10:03:24;;;;;;;8.75;4.57;;;;;;;23.19;47.66;101804.47;5073451;28;20056;-71
2022/07/30 10:06:32;;;;;;;7.72;4.43;;;;;;;23.21;48.25;101800.69;5077915;28;20045;-71
2022/07/30 10:09:03;;;;;;;8.27;4.03;;;;;;;23.27;48.62;101802.09;5106306;28;20091;-70
2022/07/30 10:11:43;;;;;;;9.98;3.67;;;;;;;23.36;46.81;101801.44;5088203;28;20041;-72
2022/07/30 10:14:11;;;;;;;4.60;3.30;;;;;;;23.37;46.71;101808.56;5072106;28;20496;-71
2022/07/30 10:16:40;;;;;;;7.38;4.25;;;;;;;23.40;46.89;101796.72;5085853;28;20041;-71
2022/07/30 10:19:11;;;;;;;4.43;3.22;;;;;;;23.43;47.92;101804.56;5073311;28;20112;-71
2022/07/30 10:22:09;;;;;;;7.05;3.95;;;;;;;23.55;47.73;101803.69;5065399;28;20131;-71
2022/07/30 10:24:56;;;;;;;6.88;3.65;;;;;;;23.67;47.13;101791.22;5073382;28;20037;-71
2022/07/30 10:27:45;;;;;;;9.27;3.30;;;;;;;23.65;47.26;101785.06;5071056;28;20048;-71
2022/07/30 10:30:26;;;;;;;5.30;2.10;;;;;;;23.70;45.71;101782.94;5087963;28;20560;-70
2022/07/30 10:32:58;;;;;;;9.20;2.17;;;;;;;23.80;43.95;101785.81;5070135;28;20538;-71
2022/07/30 10:35:26;;;;;;;4.80;2.33;;;;;;;23.91;43.89;101782.34;5079201;28;20083;-72
2022/07/30 10:38:10;;;;;;;4.60;1.67;;;;;;;24.01;43.75;101777.19;5093954;28;20040;-71
2022/07/30 10:40:54;;;;;;;2.80;1.52;;;;;;;24.08;43.30;101777.59;5079304;28;20092;-71
2022/07/30 10:44:01;;;;;;;4.40;1.77;;;;;;;24.14;44.20;101774.44;5085556;28;20124;-73
2022/07/30 10:46:41;;;;;;;5.68;2.00;;;;;;;24.26;44.79;101778.09;5074088;28;20052;-70
2022/07/30 10:49:16;;;;;;;8.27;2.47;;;;;;;24.42;43.70;101786.75;5074918;28;20080;-70
2022/07/30 10:51:48;;;;;;;5.43;1.88;;;;;;;24.54;42.93;101790.34;5051882;28;20041;-72
2022/07/30 10:54:35;;;;;;;3.30;1.52;;;;;;;24.63;42.67;101778.03;5053178;28;20084;-71
2022/07/30 10:57:14;;;;;;;8.25;2.28;;;;;;;24.70;43.07;101778.47;5064607;28;20044;-70
2022/07/30 10:59:58;;;;;;;7.13;1.98;;;;;;;24.80;43.23;101783.03;5079408;28;20045;-74
2022/07/30 11:02:30;;;;;;;6.10;1.83;;;;;;;24.92;43.07;101781.25;5089311;28;20040;-71
2022/07/30 11:05:17;;;;;;;5.15;1.40;;;;;;;25.06;40.95;101784.69;5096291;28;20049;-72
2022/07/30 11:08:31;;;;;;;4.90;1.80;;;;;;;25.21;41.59;101785.34;5064648;28;20041;-71
2022/07/30 11:11:24;;;;;;;7.82;1.88;;;;;;;25.32;41.96;101781.81;5067631;28;20048;-71
2022/07/30 11:14:11;;;;;;;4.07;1.60;;;;;;;25.34;41.16;101779.81;5070308;28;20120;-72
2022/07/30 11:17:04;;;;;;;3.78;1.40;;;;;;;25.50;41.80;101780.38;5061091;28;20059;-71
2022/07/30 11:19:31;;;;;;;3.88;1.42;;;;;;;25.68;41.04;101779.91;5092728;28;20130;-71
2022/07/30 11:22:27;;;;;;;3.35;1.35;;;;;;;25.86;39.75;101767.59;5071707;28;20475;-71
2022/07/30 11:24:56;;;;;;;4.28;1.35;;;;;;;25.96;38.80;101770.44;5074567;28;20049;-70
2022/07/30 11:27:40;;;;;;;7.43;2.00;;;;;;;26.08;39.22;101771.25;5067813;28;20048;-71
2022/07/30 11:30:17;;;;;;;3.35;1.63;;;;;;;26.14;38.96;101778.91;5071264;28;20131;-74
2022/07/30 11:32:45;;;;;;;4.45;1.30;;;;;;;26.12;39.00;101774.59;5055630;28;20033;-74
2022/07/30 11:35:22;;;;;;;7.90;1.83;;;;;;;26.09;39.02;101782.94;5077824;28;20041;-72
2022/07/30 11:38:16;;;;;;;4.78;1.98;;;;;;;26.14;39.42;101784.31;5066637;28;20103;-72
2022/07/30 11:40:48;;;;;;;4.13;2.33;;;;;;;26.27;39.67;101769.75;5060965;28;20118;-73
2022/07/30 11:43:25;;;;;;;5.00;1.90;;;;;;;26.36;39.87;101769.00;5071643;28;20045;-70
2022/07/30 11:46:21;;;;;;;3.70;1.70;;;;;;;26.33;39.03;101772.81;5069899;28;20484;-70
2022/07/30 11:48:57;;;;;;;6.13;1.58;;;;;;;26.35;38.92;101768.16;5069768;28;20443;-71
2022/07/30 11:51:25;;;;;;;4.63;1.25;;;;;;;26.42;38.91;101767.63;5072869;28;20049;-70
2022/07/30 11:54:09;;;;;;;9.68;1.65;;;;;;;26.59;38.21;101772.50;5069650;28;20510;-71
2022/07/30 11:56:36;;;;;;;;;;;;;;;26.63;39.10;101773.09;5068986;28;20521;-71